This is the latest recevied weather packets stored in our database for station/object KD6VEX-1. If no packets are shown the sender has not sent any weather packets the latest 10 day(s).
| Time | Temp. | Humidity | Pressure | Rain* | Wind** | Luminosity | Snow |
|---|---|---|---|---|---|---|---|
| 1778020276 | 21.11° C | 47% | 1014.1 hPa | 0 mm | - | - | - |
| 1778019976 | 21.67° C | 48% | 1013.9 hPa | 0 mm | - | - | - |
| 1778019676 | 21.11° C | 49% | 1014.1 hPa | 0 mm | - | - | - |
| 1778019376 | 21.11° C | 49% | 1014.2 hPa | 0 mm | - | - | - |
| 1778018741 | 20° C | 52% | 1014.3 hPa | 0 mm | - | - | - |
| 1778018441 | 19.44° C | 52% | 1014.3 hPa | 0 mm | - | - | - |
| 1778018141 | 19.44° C | 52% | 1014.4 hPa | 0 mm | - | - | - |
| 1778017841 | 19.44° C | 52% | 1014.3 hPa | 0 mm | - | - | - |
| 1778017541 | 19.44° C | 51% | 1014.4 hPa | 0 mm | - | - | - |
| 1778017241 | 19.44° C | 52% | 1014.4 hPa | 0 mm | - | - | - |
| 1778016942 | 20° C | 51% | 1014.4 hPa | 0 mm | - | - | - |
| 1778016641 | 20° C | 50% | 1014.4 hPa | 0 mm | - | - | - |
| 1778016341 | 20° C | 51% | 1014.4 hPa | 0 mm | - | - | - |
| 1778015741 | 20.56° C | 50% | 1014.3 hPa | 0 mm | - | - | - |
| 1778015441 | 20.56° C | 50% | 1014.4 hPa | 0 mm | - | - | - |
| 1778015141 | 20.56° C | 49% | 1014.2 hPa | 0 mm | - | - | - |
| 1778014841 | 21.11° C | 49% | 1014.3 hPa | 0 mm | - | - | - |
| 1778014541 | 21.11° C | 49% | 1014.3 hPa | 0 mm | - | - | - |
| 1778014243 | 20.56° C | 49% | 1014.3 hPa | 0 mm | - | - | - |
| 1778013706 | 21.67° C | 46% | 1014.3 hPa | 0 mm | - | - | - |
| 1778013408 | 22.22° C | 46% | 1014.3 hPa | 0 mm | - | - | - |
| 1778013106 | 21.67° C | 46% | 1014.3 hPa | 0 mm | - | - | - |
| 1778012806 | 22.78° C | 42% | 1014.3 hPa | 0 mm | - | - | - |
| 1778012506 | 22.22° C | 44% | 1014.4 hPa | 0 mm | - | - | - |
| 1778012206 | 22.22° C | 44% | 1014.4 hPa | 0 mm | - | - | - |
* Rain latest hour (hover to see other rain measurements)
** Current wind speed in m/s (hover to see current wind gust speed)